sensor_id;sensor_type;location;lat;lon;timestamp;temperature;humidity
12907;DHT22;6521;50.498;8.474;2023-05-10T00:02:07;13.34;91.87
12907;DHT22;6521;50.498;8.474;2023-05-10T00:04:37;13.36;91.93
12907;DHT22;6521;50.498;8.474;2023-05-10T00:07:08;13.31;91.52
12907;DHT22;6521;50.498;8.474;2023-05-10T00:09:39;13.22;91.55
12907;DHT22;6521;50.498;8.474;2023-05-10T00:12:10;13.19;91.55
12907;DHT22;6521;50.498;8.474;2023-05-10T00:14:41;13.14;91.20
12907;DHT22;6521;50.498;8.474;2023-05-10T00:17:12;13.04;91.00
12907;DHT22;6521;50.498;8.474;2023-05-10T00:19:43;13.03;90.98
12907;DHT22;6521;50.498;8.474;2023-05-10T00:22:13;12.95;90.92
12907;DHT22;6521;50.498;8.474;2023-05-10T00:24:44;12.95;91.07
12907;DHT22;6521;50.498;8.474;2023-05-10T00:27:15;12.92;91.07
12907;DHT22;6521;50.498;8.474;2023-05-10T00:29:45;12.88;91.15
12907;DHT22;6521;50.498;8.474;2023-05-10T00:32:16;12.88;91.30
12907;DHT22;6521;50.498;8.474;2023-05-10T00:34:47;12.86;91.40
12907;DHT22;6521;50.498;8.474;2023-05-10T00:37:18;12.83;91.53
12907;DHT22;6521;50.498;8.474;2023-05-10T00:39:49;12.83;91.51
12907;DHT22;6521;50.498;8.474;2023-05-10T00:42:20;12.78;91.50
12907;DHT22;6521;50.498;8.474;2023-05-10T00:44:50;12.78;91.47
12907;DHT22;6521;50.498;8.474;2023-05-10T00:47:22;12.78;91.49
12907;DHT22;6521;50.498;8.474;2023-05-10T00:49:53;12.75;91.44
12907;DHT22;6521;50.498;8.474;2023-05-10T00:52:24;12.71;91.54
12907;DHT22;6521;50.498;8.474;2023-05-10T00:54:55;12.71;91.62
12907;DHT22;6521;50.498;8.474;2023-05-10T00:57:26;12.65;91.54
12907;DHT22;6521;50.498;8.474;2023-05-10T00:59:57;12.66;91.75
12907;DHT22;6521;50.498;8.474;2023-05-10T01:02:28;12.65;91.57
12907;DHT22;6521;50.498;8.474;2023-05-10T01:05:02;12.62;91.74
12907;DHT22;6521;50.498;8.474;2023-05-10T01:07:34;12.59;91.77
12907;DHT22;6521;50.498;8.474;2023-05-10T01:10:06;12.52;91.78
12907;DHT22;6521;50.498;8.474;2023-05-10T01:12:39;12.54;91.59
12907;DHT22;6521;50.498;8.474;2023-05-10T01:15:11;12.51;91.67
12907;DHT22;6521;50.498;8.474;2023-05-10T01:17:44;12.48;91.44
12907;DHT22;6521;50.498;8.474;2023-05-10T01:20:15;12.48;91.58
12907;DHT22;6521;50.498;8.474;2023-05-10T01:22:59;12.49;91.50
12907;DHT22;6521;50.498;8.474;2023-05-10T01:31:28;12.40;91.67
12907;DHT22;6521;50.498;8.474;2023-05-10T01:34:09;12.38;91.70
12907;DHT22;6521;50.498;8.474;2023-05-10T01:36:58;12.37;91.77
12907;DHT22;6521;50.498;8.474;2023-05-10T01:40:02;12.34;91.80
12907;DHT22;6521;50.498;8.474;2023-05-10T01:42:46;12.28;91.98
12907;DHT22;6521;50.498;8.474;2023-05-10T01:48:10;12.28;92.19
12907;DHT22;6521;50.498;8.474;2023-05-10T01:50:43;12.25;92.28
12907;DHT22;6521;50.498;8.474;2023-05-10T01:53:18;12.24;92.07
12907;DHT22;6521;50.498;8.474;2023-05-10T01:55:52;12.25;92.16
12907;DHT22;6521;50.498;8.474;2023-05-10T01:58:29;12.21;92.27
12907;DHT22;6521;50.498;8.474;2023-05-10T02:01:03;12.23;92.24
12907;DHT22;6521;50.498;8.474;2023-05-10T02:03:35;12.27;92.36
12907;DHT22;6521;50.498;8.474;2023-05-10T02:06:09;12.27;92.40
12907;DHT22;6521;50.498;8.474;2023-05-10T02:08:41;12.25;92.36
12907;DHT22;6521;50.498;8.474;2023-05-10T02:11:13;12.28;92.30
12907;DHT22;6521;50.498;8.474;2023-05-10T02:13:44;12.27;92.33
12907;DHT22;6521;50.498;8.474;2023-05-10T02:16:18;12.27;92.45
12907;DHT22;6521;50.498;8.474;2023-05-10T02:18:53;12.25;92.34
12907;DHT22;6521;50.498;8.474;2023-05-10T02:21:25;12.28;92.47
12907;DHT22;6521;50.498;8.474;2023-05-10T02:23:59;12.25;92.39
12907;DHT22;6521;50.498;8.474;2023-05-10T02:26:31;12.23;92.55
12907;DHT22;6521;50.498;8.474;2023-05-10T02:29:04;12.24;92.73
12907;DHT22;6521;50.498;8.474;2023-05-10T02:31:37;12.23;92.57
12907;DHT22;6521;50.498;8.474;2023-05-10T02:34:10;12.27;92.53
12907;DHT22;6521;50.498;8.474;2023-05-10T02:36:42;12.23;92.47
12907;DHT22;6521;50.498;8.474;2023-05-10T02:39:14;12.23;92.39
12907;DHT22;6521;50.498;8.474;2023-05-10T02:41:46;12.23;92.32
12907;DHT22;6521;50.498;8.474;2023-05-10T02:44:19;12.25;92.34
12907;DHT22;6521;50.498;8.474;2023-05-10T02:46:51;12.17;92.47
12907;DHT22;6521;50.498;8.474;2023-05-10T02:49:22;12.20;92.33
12907;DHT22;6521;50.498;8.474;2023-05-10T02:51:56;12.16;92.44
12907;DHT22;6521;50.498;8.474;2023-05-10T02:54:32;12.13;92.40
12907;DHT22;6521;50.498;8.474;2023-05-10T02:57:05;12.07;92.44
12907;DHT22;6521;50.498;8.474;2023-05-10T02:59:36;12.06;92.45
12907;DHT22;6521;50.498;8.474;2023-05-10T03:02:07;12.04;92.55
12907;DHT22;6521;50.498;8.474;2023-05-10T03:04:38;12.04;92.29
12907;DHT22;6521;50.498;8.474;2023-05-10T03:07:09;12.00;92.46
12907;DHT22;6521;50.498;8.474;2023-05-10T03:09:41;12.01;92.50
12907;DHT22;6521;50.498;8.474;2023-05-10T03:15:00;12.00;92.45
12907;DHT22;6521;50.498;8.474;2023-05-10T03:17:50;11.94;92.61
12907;DHT22;6521;50.498;8.474;2023-05-10T03:20:29;11.96;92.56
12907;DHT22;6521;50.498;8.474;2023-05-10T03:23:35;11.96;92.55
12907;DHT22;6521;50.498;8.474;2023-05-10T03:26:07;11.93;92.72
12907;DHT22;6521;50.498;8.474;2023-05-10T03:28:39;11.93;92.80
12907;DHT22;6521;50.498;8.474;2023-05-10T03:31:11;11.93;92.90
12907;DHT22;6521;50.498;8.474;2023-05-10T03:33:51;11.96;92.87
12907;DHT22;6521;50.498;8.474;2023-05-10T03:36:27;11.93;92.96
12907;DHT22;6521;50.498;8.474;2023-05-10T03:38:59;11.97;92.98
12907;DHT22;6521;50.498;8.474;2023-05-10T03:41:30;11.97;92.94
12907;DHT22;6521;50.498;8.474;2023-05-10T03:44:01;11.97;92.98
12907;DHT22;6521;50.498;8.474;2023-05-10T03:46:33;11.98;93.01
12907;DHT22;6521;50.498;8.474;2023-05-10T03:49:03;12.06;92.98
12907;DHT22;6521;50.498;8.474;2023-05-10T03:51:34;12.07;92.94
12907;DHT22;6521;50.498;8.474;2023-05-10T03:54:05;12.04;92.92
12907;DHT22;6521;50.498;8.474;2023-05-10T03:56:36;12.04;92.86
12907;DHT22;6521;50.498;8.474;2023-05-10T03:59:07;12.03;92.99
12907;DHT22;6521;50.498;8.474;2023-05-10T04:01:39;12.01;92.94
12907;DHT22;6521;50.498;8.474;2023-05-10T04:04:10;12.00;93.08
12907;DHT22;6521;50.498;8.474;2023-05-10T04:06:41;12.01;93.06
12907;DHT22;6521;50.498;8.474;2023-05-10T04:09:12;12.00;93.18
12907;DHT22;6521;50.498;8.474;2023-05-10T04:11:44;12.04;93.18
12907;DHT22;6521;50.498;8.474;2023-05-10T04:14:15;12.06;93.27
12907;DHT22;6521;50.498;8.474;2023-05-10T04:16:46;12.08;93.19
12907;DHT22;6521;50.498;8.474;2023-05-10T04:19:16;12.10;93.08
12907;DHT22;6521;50.498;8.474;2023-05-10T04:21:47;12.13;92.95
12907;DHT22;6521;50.498;8.474;2023-05-10T04:24:18;12.08;93.09
12907;DHT22;6521;50.498;8.474;2023-05-10T04:26:48;12.08;92.96
12907;DHT22;6521;50.498;8.474;2023-05-10T04:29:19;12.06;93.02
12907;DHT22;6521;50.498;8.474;2023-05-10T04:31:50;12.07;93.14
12907;DHT22;6521;50.498;8.474;2023-05-10T04:34:21;12.07;93.03
12907;DHT22;6521;50.498;8.474;2023-05-10T04:36:52;12.12;93.03
12907;DHT22;6521;50.498;8.474;2023-05-10T04:39:22;12.12;93.01
12907;DHT22;6521;50.498;8.474;2023-05-10T04:41:53;12.12;93.07
12907;DHT22;6521;50.498;8.474;2023-05-10T04:44:24;12.13;93.04
12907;DHT22;6521;50.498;8.474;2023-05-10T04:46:55;12.10;92.96
12907;DHT22;6521;50.498;8.474;2023-05-10T04:49:25;12.16;92.83
12907;DHT22;6521;50.498;8.474;2023-05-10T04:51:56;12.20;92.80
12907;DHT22;6521;50.498;8.474;2023-05-10T04:54:27;12.21;92.76
12907;DHT22;6521;50.498;8.474;2023-05-10T04:56:58;12.16;92.75
12907;DHT22;6521;50.498;8.474;2023-05-10T04:59:29;12.21;93.09
12907;DHT22;6521;50.498;8.474;2023-05-10T05:01:59;12.25;92.87
12907;DHT22;6521;50.498;8.474;2023-05-10T05:04:30;12.24;92.97
12907;DHT22;6521;50.498;8.474;2023-05-10T05:07:01;12.31;92.89
12907;DHT22;6521;50.498;8.474;2023-05-10T05:09:32;12.30;93.00
12907;DHT22;6521;50.498;8.474;2023-05-10T05:12:03;12.35;92.81
12907;DHT22;6521;50.498;8.474;2023-05-10T05:14:34;12.33;92.82
12907;DHT22;6521;50.498;8.474;2023-05-10T05:17:05;12.37;92.95
12907;DHT22;6521;50.498;8.474;2023-05-10T05:19:36;12.44;92.71
12907;DHT22;6521;50.498;8.474;2023-05-10T05:22:07;12.51;92.68
12907;DHT22;6521;50.498;8.474;2023-05-10T05:24:39;12.55;92.11
12907;DHT22;6521;50.498;8.474;2023-05-10T05:27:09;12.61;92.01
12907;DHT22;6521;50.498;8.474;2023-05-10T05:29:40;12.55;92.38
12907;DHT22;6521;50.498;8.474;2023-05-10T05:32:11;12.58;92.12
12907;DHT22;6521;50.498;8.474;2023-05-10T05:34:44;12.59;91.96
12907;DHT22;6521;50.498;8.474;2023-05-10T05:37:15;12.54;92.04
12907;DHT22;6521;50.498;8.474;2023-05-10T05:39:46;12.61;91.92
12907;DHT22;6521;50.498;8.474;2023-05-10T05:42:18;12.62;91.88
12907;DHT22;6521;50.498;8.474;2023-05-10T05:44:49;12.61;91.66
12907;DHT22;6521;50.498;8.474;2023-05-10T05:47:20;12.59;91.79
12907;DHT22;6521;50.498;8.474;2023-05-10T05:49:50;12.62;91.80
12907;DHT22;6521;50.498;8.474;2023-05-10T05:52:21;12.61;91.51
12907;DHT22;6521;50.498;8.474;2023-05-10T05:54:52;12.58;91.62
12907;DHT22;6521;50.498;8.474;2023-05-10T05:57:22;12.58;91.64
12907;DHT22;6521;50.498;8.474;2023-05-10T05:59:53;12.61;91.60
12907;DHT22;6521;50.498;8.474;2023-05-10T06:02:24;12.61;91.60
12907;DHT22;6521;50.498;8.474;2023-05-10T06:04:55;12.59;91.47
12907;DHT22;6521;50.498;8.474;2023-05-10T06:07:26;12.58;91.27
12907;DHT22;6521;50.498;8.474;2023-05-10T06:09:57;12.52;91.40
12907;DHT22;6521;50.498;8.474;2023-05-10T06:12:28;12.54;91.79
12907;DHT22;6521;50.498;8.474;2023-05-10T06:14:58;12.61;91.63
12907;DHT22;6521;50.498;8.474;2023-05-10T06:17:29;12.65;91.40
12907;DHT22;6521;50.498;8.474;2023-05-10T06:20:00;12.61;91.31
12907;DHT22;6521;50.498;8.474;2023-05-10T06:22:31;12.64;91.37
12907;DHT22;6521;50.498;8.474;2023-05-10T06:25:02;12.64;91.59
12907;DHT22;6521;50.498;8.474;2023-05-10T06:27:33;12.68;91.50
12907;DHT22;6521;50.498;8.474;2023-05-10T06:30:04;12.72;91.45
12907;DHT22;6521;50.498;8.474;2023-05-10T06:32:35;12.88;91.21
12907;DHT22;6521;50.498;8.474;2023-05-10T06:35:07;12.88;91.06
12907;DHT22;6521;50.498;8.474;2023-05-10T06:37:38;12.95;90.73
12907;DHT22;6521;50.498;8.474;2023-05-10T06:40:09;13.07;90.95
12907;DHT22;6521;50.498;8.474;2023-05-10T06:42:40;13.16;91.20
12907;DHT22;6521;50.498;8.474;2023-05-10T06:45:11;13.23;90.98
12907;DHT22;6521;50.498;8.474;2023-05-10T06:47:42;13.40;90.88
12907;DHT22;6521;50.498;8.474;2023-05-10T06:50:12;13.57;90.85
12907;DHT22;6521;50.498;8.474;2023-05-10T06:52:43;13.68;90.71
12907;DHT22;6521;50.498;8.474;2023-05-10T06:55:14;13.72;89.52
12907;DHT22;6521;50.498;8.474;2023-05-10T06:57:45;13.74;90.03
12907;DHT22;6521;50.498;8.474;2023-05-10T07:00:16;13.72;89.46
12907;DHT22;6521;50.498;8.474;2023-05-10T07:02:47;13.71;89.05
12907;DHT22;6521;50.498;8.474;2023-05-10T07:05:18;13.74;89.10
12907;DHT22;6521;50.498;8.474;2023-05-10T07:07:49;13.77;88.53
12907;DHT22;6521;50.498;8.474;2023-05-10T07:10:19;13.79;88.58
12907;DHT22;6521;50.498;8.474;2023-05-10T07:12:50;13.85;88.54
12907;DHT22;6521;50.498;8.474;2023-05-10T07:15:21;13.88;88.23
12907;DHT22;6521;50.498;8.474;2023-05-10T07:17:52;13.88;88.13
12907;DHT22;6521;50.498;8.474;2023-05-10T07:20:22;13.88;87.44
12907;DHT22;6521;50.498;8.474;2023-05-10T07:22:53;13.86;87.40
12907;DHT22;6521;50.498;8.474;2023-05-10T07:25:24;13.86;86.97
12907;DHT22;6521;50.498;8.474;2023-05-10T07:27:55;13.86;87.64
12907;DHT22;6521;50.498;8.474;2023-05-10T07:30:25;13.81;87.28
12907;DHT22;6521;50.498;8.474;2023-05-10T07:32:56;13.81;88.08
12907;DHT22;6521;50.498;8.474;2023-05-10T07:35:27;13.78;88.15
12907;DHT22;6521;50.498;8.474;2023-05-10T07:37:57;13.77;88.63
12907;DHT22;6521;50.498;8.474;2023-05-10T07:40:28;13.74;88.10
12907;DHT22;6521;50.498;8.474;2023-05-10T07:42:59;13.72;88.04
12907;DHT22;6521;50.498;8.474;2023-05-10T07:45:33;13.78;88.48
12907;DHT22;6521;50.498;8.474;2023-05-10T07:48:04;13.83;88.20
12907;DHT22;6521;50.498;8.474;2023-05-10T07:50:35;13.86;88.00
12907;DHT22;6521;50.498;8.474;2023-05-10T07:53:05;13.88;87.98
12907;DHT22;6521;50.498;8.474;2023-05-10T07:55:37;13.83;87.92
12907;DHT22;6521;50.498;8.474;2023-05-10T07:58:08;13.94;87.56
12907;DHT22;6521;50.498;8.474;2023-05-10T08:00:39;13.97;86.78
12907;DHT22;6521;50.498;8.474;2023-05-10T08:03:11;14.02;87.12
12907;DHT22;6521;50.498;8.474;2023-05-10T08:05:42;14.13;87.91
12907;DHT22;6521;50.498;8.474;2023-05-10T08:08:13;14.25;87.44
12907;DHT22;6521;50.498;8.474;2023-05-10T08:10:43;14.34;87.27
12907;DHT22;6521;50.498;8.474;2023-05-10T08:13:14;14.36;87.37
12907;DHT22;6521;50.498;8.474;2023-05-10T08:15:45;14.28;86.61
12907;DHT22;6521;50.498;8.474;2023-05-10T08:18:16;14.20;86.27
12907;DHT22;6521;50.498;8.474;2023-05-10T08:20:47;14.19;86.95
12907;DHT22;6521;50.498;8.474;2023-05-10T08:23:18;14.19;86.54
12907;DHT22;6521;50.498;8.474;2023-05-10T08:25:48;14.19;86.82
12907;DHT22;6521;50.498;8.474;2023-05-10T08:28:19;14.19;87.00
12907;DHT22;6521;50.498;8.474;2023-05-10T08:30:50;14.11;86.95
12907;DHT22;6521;50.498;8.474;2023-05-10T08:33:21;13.97;87.96
12907;DHT22;6521;50.498;8.474;2023-05-10T08:35:51;13.83;88.07
12907;DHT22;6521;50.498;8.474;2023-05-10T08:38:23;13.77;88.54
12907;DHT22;6521;50.498;8.474;2023-05-10T08:40:54;13.74;88.71
12907;DHT22;6521;50.498;8.474;2023-05-10T08:43:29;13.70;89.27
12907;DHT22;6521;50.498;8.474;2023-05-10T08:46:01;13.62;88.93
12907;DHT22;6521;50.498;8.474;2023-05-10T08:48:34;13.61;89.76
12907;DHT22;6521;50.498;8.474;2023-05-10T08:51:07;13.62;89.62
12907;DHT22;6521;50.498;8.474;2023-05-10T08:53:39;13.61;89.82
12907;DHT22;6521;50.498;8.474;2023-05-10T08:56:12;13.55;89.70
12907;DHT22;6521;50.498;8.474;2023-05-10T08:58:43;13.51;89.71
12907;DHT22;6521;50.498;8.474;2023-05-10T09:01:15;13.53;90.19
12907;DHT22;6521;50.498;8.474;2023-05-10T09:03:48;13.51;89.82
12907;DHT22;6521;50.498;8.474;2023-05-10T09:06:19;13.50;89.92
12907;DHT22;6521;50.498;8.474;2023-05-10T09:08:50;13.47;89.99
12907;DHT22;6521;50.498;8.474;2023-05-10T09:11:22;13.47;90.08
12907;DHT22;6521;50.498;8.474;2023-05-10T09:13:55;13.46;89.64
12907;DHT22;6521;50.498;8.474;2023-05-10T09:16:26;13.53;90.06
12907;DHT22;6521;50.498;8.474;2023-05-10T09:18:56;13.58;90.38
12907;DHT22;6521;50.498;8.474;2023-05-10T09:21:27;13.67;90.55
12907;DHT22;6521;50.498;8.474;2023-05-10T09:24:03;13.82;90.63
12907;DHT22;6521;50.498;8.474;2023-05-10T09:26:34;13.92;90.34
12907;DHT22;6521;50.498;8.474;2023-05-10T09:29:06;13.97;90.20
12907;DHT22;6521;50.498;8.474;2023-05-10T09:31:47;13.98;90.33
12907;DHT22;6521;50.498;8.474;2023-05-10T09:34:19;14.01;90.40
12907;DHT22;6521;50.498;8.474;2023-05-10T09:36:56;13.94;89.93
12907;DHT22;6521;50.498;8.474;2023-05-10T09:39:35;13.81;89.73
12907;DHT22;6521;50.498;8.474;2023-05-10T09:42:07;13.77;90.19
12907;DHT22;6521;50.498;8.474;2023-05-10T09:44:39;13.74;90.10
12907;DHT22;6521;50.498;8.474;2023-05-10T09:47:17;13.75;90.05
12907;DHT22;6521;50.498;8.474;2023-05-10T09:49:52;13.81;90.40
12907;DHT22;6521;50.498;8.474;2023-05-10T09:52:23;13.99;90.76
12907;DHT22;6521;50.498;8.474;2023-05-10T09:54:55;14.13;90.45
12907;DHT22;6521;50.498;8.474;2023-05-10T09:57:25;14.33;90.53
12907;DHT22;6521;50.498;8.474;2023-05-10T09:59:56;14.61;90.03
12907;DHT22;6521;50.498;8.474;2023-05-10T10:02:31;14.91;89.50
12907;DHT22;6521;50.498;8.474;2023-05-10T10:05:02;15.19;88.98
12907;DHT22;6521;50.498;8.474;2023-05-10T10:07:36;15.66;88.94
12907;DHT22;6521;50.498;8.474;2023-05-10T10:10:07;16.31;86.96
12907;DHT22;6521;50.498;8.474;2023-05-10T10:12:43;16.85;82.88
12907;DHT22;6521;50.498;8.474;2023-05-10T10:15:15;17.38;81.01
12907;DHT22;6521;50.498;8.474;2023-05-10T10:17:46;17.54;78.74
12907;DHT22;6521;50.498;8.474;2023-05-10T10:20:18;17.17;77.98
12907;DHT22;6521;50.498;8.474;2023-05-10T10:22:49;16.97;80.02
12907;DHT22;6521;50.498;8.474;2023-05-10T10:25:22;16.66;80.01
12907;DHT22;6521;50.498;8.474;2023-05-10T10:30:43;16.18;82.68
12907;DHT22;6521;50.498;8.474;2023-05-10T10:36:18;16.03;83.36
12907;DHT22;6521;50.498;8.474;2023-05-10T10:38:56;15.77;82.66
12907;DHT22;6521;50.498;8.474;2023-05-10T10:41:34;15.60;82.58
12907;DHT22;6521;50.498;8.474;2023-05-10T10:47:22;15.46;83.83
12907;DHT22;6521;50.498;8.474;2023-05-10T10:52:34;15.56;83.17
12907;DHT22;6521;50.498;8.474;2023-05-10T11:00:22;14.98;84.74
12907;DHT22;6521;50.498;8.474;2023-05-10T11:03:04;14.76;85.08
12907;DHT22;6521;50.498;8.474;2023-05-10T11:05:37;14.70;85.34
12907;DHT22;6521;50.498;8.474;2023-05-10T11:13:42;14.56;85.48
12907;DHT22;6521;50.498;8.474;2023-05-10T11:16:24;14.47;86.09
12907;DHT22;6521;50.498;8.474;2023-05-10T11:19:03;14.36;86.76
12907;DHT22;6521;50.498;8.474;2023-05-10T11:22:28;14.28;86.36
12907;DHT22;6521;50.498;8.474;2023-05-10T11:24:34;14.20;87.14
12907;DHT22;6521;50.498;8.474;2023-05-10T11:27:06;14.08;86.63
12907;DHT22;6521;50.498;8.474;2023-05-10T11:29:37;13.94;86.90
12907;DHT22;6521;50.498;8.474;2023-05-10T11:32:08;13.85;86.77
12907;DHT22;6521;50.498;8.474;2023-05-10T11:34:39;13.74;86.60
12907;DHT22;6521;50.498;8.474;2023-05-10T11:37:09;13.70;86.73
12907;DHT22;6521;50.498;8.474;2023-05-10T11:39:45;13.64;86.67
12907;DHT22;6521;50.498;8.474;2023-05-10T11:42:16;13.68;87.81
12907;DHT22;6521;50.498;8.474;2023-05-10T11:44:47;13.74;87.49
12907;DHT22;6521;50.498;8.474;2023-05-10T11:47:18;13.72;87.44
12907;DHT22;6521;50.498;8.474;2023-05-10T11:49:51;13.70;87.70
12907;DHT22;6521;50.498;8.474;2023-05-10T11:52:22;13.71;88.20
12907;DHT22;6521;50.498;8.474;2023-05-10T11:54:54;13.65;88.08
12907;DHT22;6521;50.498;8.474;2023-05-10T11:57:28;13.71;88.44
12907;DHT22;6521;50.498;8.474;2023-05-10T11:59:59;13.82;88.49
12907;DHT22;6521;50.498;8.474;2023-05-10T12:02:30;13.89;88.61
12907;DHT22;6521;50.498;8.474;2023-05-10T12:05:01;14.04;88.55
12907;DHT22;6521;50.498;8.474;2023-05-10T12:07:33;14.15;88.38
12907;DHT22;6521;50.498;8.474;2023-05-10T12:12:38;14.57;88.73
12907;DHT22;6521;50.498;8.474;2023-05-10T12:15:22;14.99;88.53
12907;DHT22;6521;50.498;8.474;2023-05-10T12:17:53;15.43;87.66
12907;DHT22;6521;50.498;8.474;2023-05-10T12:20:27;15.76;86.01
12907;DHT22;6521;50.498;8.474;2023-05-10T12:22:58;16.16;84.33
12907;DHT22;6521;50.498;8.474;2023-05-10T12:25:33;16.29;82.28
12907;DHT22;6521;50.498;8.474;2023-05-10T12:28:07;16.24;81.79
12907;DHT22;6521;50.498;8.474;2023-05-10T12:30:38;16.13;82.59
12907;DHT22;6521;50.498;8.474;2023-05-10T12:33:13;15.90;82.16
12907;DHT22;6521;50.498;8.474;2023-05-10T12:38:28;15.57;82.31
12907;DHT22;6521;50.498;8.474;2023-05-10T12:41:02;15.57;82.78
12907;DHT22;6521;50.498;8.474;2023-05-10T12:43:33;15.86;83.65
12907;DHT22;6521;50.498;8.474;2023-05-10T12:46:08;16.06;82.31
12907;DHT22;6521;50.498;8.474;2023-05-10T12:48:40;16.44;82.78
12907;DHT22;6521;50.498;8.474;2023-05-10T12:51:11;16.76;80.84
12907;DHT22;6521;50.498;8.474;2023-05-10T12:53:43;17.00;80.61
12907;DHT22;6521;50.498;8.474;2023-05-10T12:56:16;17.16;78.40
12907;DHT22;6521;50.498;8.474;2023-05-10T12:58:46;17.03;77.53
12907;DHT22;6521;50.498;8.474;2023-05-10T13:01:18;16.86;78.05
12907;DHT22;6521;50.498;8.474;2023-05-10T13:03:49;16.64;79.12
12907;DHT22;6521;50.498;8.474;2023-05-10T13:06:20;16.61;80.42
12907;DHT22;6521;50.498;8.474;2023-05-10T13:08:51;16.62;78.46
12907;DHT22;6521;50.498;8.474;2023-05-10T13:11:22;16.44;78.31
12907;DHT22;6521;50.498;8.474;2023-05-10T13:13:52;16.41;78.72
12907;DHT22;6521;50.498;8.474;2023-05-10T13:16:23;16.35;77.93
12907;DHT22;6521;50.498;8.474;2023-05-10T13:18:54;16.32;77.28
12907;DHT22;6521;50.498;8.474;2023-05-10T13:21:24;16.32;77.44
12907;DHT22;6521;50.498;8.474;2023-05-10T13:23:56;16.38;76.99
12907;DHT22;6521;50.498;8.474;2023-05-10T13:26:26;16.45;79.01
12907;DHT22;6521;50.498;8.474;2023-05-10T13:28:57;16.45;78.41
12907;DHT22;6521;50.498;8.474;2023-05-10T13:31:28;16.62;77.98
12907;DHT22;6521;50.498;8.474;2023-05-10T13:33:59;16.89;77.43
12907;DHT22;6521;50.498;8.474;2023-05-10T13:36:29;17.12;75.63
12907;DHT22;6521;50.498;8.474;2023-05-10T13:39:00;17.40;73.70
12907;DHT22;6521;50.498;8.474;2023-05-10T13:41:33;17.50;72.83
12907;DHT22;6521;50.498;8.474;2023-05-10T13:44:04;17.50;71.99
12907;DHT22;6521;50.498;8.474;2023-05-10T13:46:35;17.43;72.35
12907;DHT22;6521;50.498;8.474;2023-05-10T13:49:06;17.40;72.62
12907;DHT22;6521;50.498;8.474;2023-05-10T13:51:37;17.38;75.48
12907;DHT22;6521;50.498;8.474;2023-05-10T13:54:07;17.35;73.70
12907;DHT22;6521;50.498;8.474;2023-05-10T13:56:39;17.31;73.22
12907;DHT22;6521;50.498;8.474;2023-05-10T13:59:11;17.27;72.87
12907;DHT22;6521;50.498;8.474;2023-05-10T14:01:42;17.27;72.93
12907;DHT22;6521;50.498;8.474;2023-05-10T14:04:16;17.33;73.89
12907;DHT22;6521;50.498;8.474;2023-05-10T14:06:47;17.44;73.79
12907;DHT22;6521;50.498;8.474;2023-05-10T14:09:18;17.70;72.60
12907;DHT22;6521;50.498;8.474;2023-05-10T14:11:49;17.95;71.80
12907;DHT22;6521;50.498;8.474;2023-05-10T14:14:19;18.22;71.26
12907;DHT22;6521;50.498;8.474;2023-05-10T14:16:50;18.40;69.36
12907;DHT22;6521;50.498;8.474;2023-05-10T14:19:22;18.63;67.63
12907;DHT22;6521;50.498;8.474;2023-05-10T14:21:53;18.68;69.56
12907;DHT22;6521;50.498;8.474;2023-05-10T14:24:24;18.50;69.69
12907;DHT22;6521;50.498;8.474;2023-05-10T14:26:54;18.37;69.69
12907;DHT22;6521;50.498;8.474;2023-05-10T14:29:25;18.25;70.46
12907;DHT22;6521;50.498;8.474;2023-05-10T14:31:56;17.86;69.91
12907;DHT22;6521;50.498;8.474;2023-05-10T14:34:27;17.37;71.97
12907;DHT22;6521;50.498;8.474;2023-05-10T14:36:58;16.83;72.57
12907;DHT22;6521;50.498;8.474;2023-05-10T14:39:29;16.18;73.11
12907;DHT22;6521;50.498;8.474;2023-05-10T14:42:00;15.74;76.12
12907;DHT22;6521;50.498;8.474;2023-05-10T14:44:31;15.52;78.07
12907;DHT22;6521;50.498;8.474;2023-05-10T14:47:02;15.15;80.06
12907;DHT22;6521;50.498;8.474;2023-05-10T14:49:33;14.87;81.42
12907;DHT22;6521;50.498;8.474;2023-05-10T14:52:04;14.64;82.38
12907;DHT22;6521;50.498;8.474;2023-05-10T14:54:34;14.51;83.41
12907;DHT22;6521;50.498;8.474;2023-05-10T14:57:06;14.44;84.02
12907;DHT22;6521;50.498;8.474;2023-05-10T14:59:37;14.51;84.24
12907;DHT22;6521;50.498;8.474;2023-05-10T15:02:07;14.56;84.86
12907;DHT22;6521;50.498;8.474;2023-05-10T15:04:38;14.61;84.34
12907;DHT22;6521;50.498;8.474;2023-05-10T15:07:09;14.71;85.02
12907;DHT22;6521;50.498;8.474;2023-05-10T15:09:40;14.85;84.97
12907;DHT22;6521;50.498;8.474;2023-05-10T15:12:11;14.98;83.98
12907;DHT22;6521;50.498;8.474;2023-05-10T15:14:42;15.21;84.41
12907;DHT22;6521;50.498;8.474;2023-05-10T15:17:12;15.35;83.57
12907;DHT22;6521;50.498;8.474;2023-05-10T15:19:43;15.52;82.90
12907;DHT22;6521;50.498;8.474;2023-05-10T15:22:14;15.62;81.76
12907;DHT22;6521;50.498;8.474;2023-05-10T15:24:45;15.69;81.01
12907;DHT22;6521;50.498;8.474;2023-05-10T15:27:15;15.77;81.76
12907;DHT22;6521;50.498;8.474;2023-05-10T15:29:46;15.74;80.57
12907;DHT22;6521;50.498;8.474;2023-05-10T15:32:17;15.83;81.26
12907;DHT22;6521;50.498;8.474;2023-05-10T15:34:47;15.87;81.19
12907;DHT22;6521;50.498;8.474;2023-05-10T15:37:18;15.93;81.03
12907;DHT22;6521;50.498;8.474;2023-05-10T15:39:49;15.94;81.08
12907;DHT22;6521;50.498;8.474;2023-05-10T15:42:20;16.01;81.07
12907;DHT22;6521;50.498;8.474;2023-05-10T15:44:50;15.98;79.74
12907;DHT22;6521;50.498;8.474;2023-05-10T15:47:21;16.01;78.97
12907;DHT22;6521;50.498;8.474;2023-05-10T15:49:52;16.00;78.73
12907;DHT22;6521;50.498;8.474;2023-05-10T15:52:23;16.08;78.82
12907;DHT22;6521;50.498;8.474;2023-05-10T15:54:53;16.16;78.08
12907;DHT22;6521;50.498;8.474;2023-05-10T15:57:25;16.16;78.64
12907;DHT22;6521;50.498;8.474;2023-05-10T15:59:56;16.28;78.96
12907;DHT22;6521;50.498;8.474;2023-05-10T16:02:27;16.32;77.86
12907;DHT22;6521;50.498;8.474;2023-05-10T16:04:58;16.38;78.89
12907;DHT22;6521;50.498;8.474;2023-05-10T16:07:28;16.45;77.65
12907;DHT22;6521;50.498;8.474;2023-05-10T16:09:59;16.47;77.65
12907;DHT22;6521;50.498;8.474;2023-05-10T16:12:33;16.47;76.49
12907;DHT22;6521;50.498;8.474;2023-05-10T16:15:05;16.41;76.47
12907;DHT22;6521;50.498;8.474;2023-05-10T16:17:36;16.44;77.24
12907;DHT22;6521;50.498;8.474;2023-05-10T16:20:07;16.49;77.14
12907;DHT22;6521;50.498;8.474;2023-05-10T16:22:38;16.61;76.08
12907;DHT22;6521;50.498;8.474;2023-05-10T16:25:09;16.54;76.55
12907;DHT22;6521;50.498;8.474;2023-05-10T16:27:39;16.56;76.22
12907;DHT22;6521;50.498;8.474;2023-05-10T16:30:10;16.47;76.22
12907;DHT22;6521;50.498;8.474;2023-05-10T16:32:41;16.47;76.35
12907;DHT22;6521;50.498;8.474;2023-05-10T16:35:12;16.42;75.57
12907;DHT22;6521;50.498;8.474;2023-05-10T16:37:43;16.34;75.99
12907;DHT22;6521;50.498;8.474;2023-05-10T16:40:15;16.31;76.93
12907;DHT22;6521;50.498;8.474;2023-05-10T16:42:46;16.22;77.25
12907;DHT22;6521;50.498;8.474;2023-05-10T16:45:17;16.18;76.85
12907;DHT22;6521;50.498;8.474;2023-05-10T16:47:48;16.04;77.53
12907;DHT22;6521;50.498;8.474;2023-05-10T16:50:18;16.04;76.53
12907;DHT22;6521;50.498;8.474;2023-05-10T16:52:49;15.98;77.14
12907;DHT22;6521;50.498;8.474;2023-05-10T16:55:20;16.07;77.00